Аэропорт
Хомутово (UHSS)

 UHSS / UUS
ЗЦ Хабаровск
Хабаровск (UHHH)
Хабаровск (UHHH)
 46.88870, 142.71800  / 59 ft

 UHSS 240400Z 20004MPS 9999 NSC 03/M05 Q1003 R01/810360 NOSIG RMK QFE751/1002
 UHSS 231400Z 2315/2421 26003MPS 9999 SCT030CB TEMPO 2315/2324 3000 FU BECMG 2401/2403 24006G11MPS BKN025CB TEMPO 2403/2418 2000 SHSN BKN015CB BECMG 2409/2412 30003MPS
uhss_aip_1605
показать схемы
Название сценария Тип сценария Flight Simulator 9 Flight Simulator X Prepar3D v2 Prepar3D v3 Prepar3D v4 xPlane
uhss-scenery-fs9-1402 бесплатный
uhss-scenery-fsx-1412 бесплатный
uhss-scenery-p3d-1412 бесплатный
uhss-scenery-xpl-1701 бесплатный


2019 © VATRUS division (Privacy Policy)